LIEOLIEE

Guest
Details From LIEO - OLBIA COSTA SMERALDA
To LIEE - Cagliari Elmas
Flight Number -
Tags generated
Created
Modified
Stats Distance 101 nm / 188 km
Max Altitude 10,800 ft / 3,292 m
Waypoints 4
Social Downloads 9
Likes 0
Share VATSIM

Download

Looking for another format? Having issues loading an existing format? Contact us
Advertisement - Login to hide

Notes

Basic altitude profile: - Ascent Rate: 2500ft/min - Ascent Speed: 250kts - Cruise Altitude: 24000ft - Cruise Speed: 310kts - Descent Rate: 2500ft/min - Descent Speed: 250kts Options: - Use NATs: yes - Use PACOTS: yes - Use low airways: yes - Use high airways: yes

Route

LIEO KOLUS L125 BAREN LIEE

ID Type Via Altitude Latitude Longitude Leg Dist Tot Dist Heading (true) Name
O LIEO APT - 0 ft / 0 m 40.89866˚ 9.51763˚ - 0 nm - OLBIA COSTA SMERALDA
KOLUS FIX - 4,000 ft / 1,219 m 40.71806˚ 9.44111˚ 11 nm 11 nm 198° / 198° -
BAREN FIX L125 (AWY-LO) 10,800 ft / 3,292 m 40.41472˚ 9.33500˚ 18 nm 30 nm 195° / 195° -
O LIEE APT - 0 ft / 0 m 39.25147˚ 9.05429˚ 71 nm 101 nm 191° / 190° Cagliari Elmas

Altitude Profile

Advertisement - Login to hide

LIEO

Details ICAO LIEO (OLB)
Name OLBIA COSTA SMERALDA
Region Italy
Timezone Europe/Rome (UTC+1.0)
Stats Elevation 37 ft / 11 m (AMSL)
Location 40.898661° 9.517629°
Runways 1
Magnetic Variation 2.443° E

METAR

LIEO 161520Z 29009KT 9999 SCT025 11/03 Q1009

Decode

TAF

TAF LIEO 161100Z 1612/1712 26018G28KT 9999 SCT030 BECMG 1618/1620 29010KT

Decode

Departure Runways

ID Width Length Bearing (true) Bearing (mag) Surface Threshold Offset Overrun Length
06 148 ft / 45 m 8,013 ft / 2,442 m 55.30° 52.86° Asphalt 805 ft / 245 m 180 ft / 55 m
24 148 ft / 45 m 8,013 ft / 2,442 m 235.31° 232.87° Asphalt 495 ft / 151 m 180 ft / 55 m

LIEE

Details ICAO LIEE (CAG)
Name Cagliari Elmas
Region Italy
Timezone Europe/Rome (UTC+1.0)
Stats Elevation 13 ft / 4 m (AMSL)
Location 39.251475° 9.054291°
Runways 1
Magnetic Variation 2.298° E

METAR

LIEE 161520Z 32013KT 9999 SCT025 12/02 Q1012

Decode

TAF

TAF LIEE 161100Z 1612/1712 33016KT 9999 SCT030

Decode

Destination Runways

ID Width Length Bearing (true) Bearing (mag) Surface Threshold Offset Overrun Length
14 148 ft / 45 m 9,157 ft / 2,791 m 138.08° 135.78° Asphalt 0 ft / 0 m 187 ft / 57 m
32 148 ft / 45 m 9,157 ft / 2,791 m 318.09° 315.79° Asphalt 0 ft / 0 m 0 ft / 0 m

Approach Navaids

Runway Type Ident Frequency Range Bearing (true) Bearing (mag) Slope Elevation
32 Localiser IEL 109.50 MHz 18 nm / 33 km 318.12° 315.82° - 7 ft / 2 m (AMSL)
32 Glidescope IEL 109.50 MHz 10 nm / 19 km 318.08° 315.79° 3.00° 9 ft / 3 m (AMSL)
32 DME IEL 109.50 MHz 18 nm / 33 km - - - 26 ft / 8 m (AMSL)

Popular Alternatives